ilmateenistus.ee keskkonnaagentuur.ee
EETN Tallinna lennuväli
FTEO31 EETN 281700
TAF EETN 281700Z 2818/0118 17013KT 8000 SCT008 BKN015 TEMPO 2818/2824
    3000 SHRA BR BKN004 SCT013CB TEMPO 0100/0107 1200 BR BCFG BKN002
    BECMG 0110/0112 11008KT TEMPO 0112/0115 3000 RA BKN004 OVC015 TEMPO
    0115/0118 2000 RA BR OVC003=

SPECI EETN 281701Z 14011KT 9999 -SHRA FEW020CB 05/03 Q0992 R08/190095=
Tallinna lennuväli
EEKA Kärdla lennuväli
FCEO32 EETN 281300 AAA
TAF AMD EEKA 281700Z 2814/2820 CNL=

METAR EEKA 281650Z NIL=
Kärdla lennuväli
EEKE Kuressaare lennuväli
FCEO32 EETN 281500
TAF EEKE 281500Z 2816/2822 16015G25KT 6000 RA SCT010 BKN020 TEMPO
    2816/2820 3000 BKN005 BKN012 SCT020CB BECMG 2820/2822 22014KT=

SPECI EEKE 281702Z AUTO 17009KT 8000NDV DZ FEW040 02/02 Q0992=
Kuressaare lennuväli
EEPU Pärnu lennuväli
METAR EEPU 281650Z NIL=
Pärnu lennuväli
EETU Tartu lennuväli
METAR EETU 281650Z 17011KT CAVOK 05/01 Q0996=
Tartu lennuväli
EEEI Ämari lennuväli
METAR EEEI 281650Z 15007KT 9999 FEW023 05/03 Q0993 R24/190095 NOSIG=
Ämari lennuväli